createdAt,value
2018-03-24T00:00:49.958Z,99.30
2018-03-24T00:03:53.244Z,99.40
2018-03-24T00:06:57.324Z,99.40
2018-03-24T00:10:00.670Z,99.40
2018-03-24T00:13:04.764Z,99.70
2018-03-24T00:16:08.104Z,99.40
2018-03-24T00:19:11.438Z,99.50
2018-03-24T00:22:15.447Z,99.50
2018-03-24T00:25:18.774Z,99.50
2018-03-24T00:28:22.846Z,99.50
2018-03-24T00:31:26.166Z,99.50
2018-03-24T00:34:29.507Z,99.50
2018-03-24T00:37:32.830Z,99.50
2018-03-24T00:40:36.163Z,99.50
2018-03-24T00:43:39.474Z,99.50
2018-03-24T00:46:43.566Z,99.50
2018-03-24T00:49:46.876Z,99.50
2018-03-24T00:52:50.199Z,99.50
2018-03-24T00:55:53.509Z,99.50
2018-03-24T00:58:56.839Z,99.50
2018-03-24T01:02:00.157Z,99.50
2018-03-24T01:05:03.508Z,99.50
2018-03-24T01:08:06.812Z,99.50
2018-03-24T01:11:10.143Z,99.50
2018-03-24T01:14:13.475Z,99.40
2018-03-24T01:17:16.786Z,99.40
2018-03-24T01:20:20.115Z,99.40
2018-03-24T01:23:23.430Z,99.50
2018-03-24T01:26:26.768Z,99.50
2018-03-24T01:29:30.092Z,99.50
2018-03-24T01:32:33.411Z,99.50
2018-03-24T01:35:36.748Z,99.50
2018-03-24T01:38:40.827Z,99.50
2018-03-24T01:41:44.170Z,99.50
2018-03-24T01:44:47.471Z,99.50
2018-03-24T01:47:50.799Z,99.50
2018-03-24T01:50:54.123Z,99.60
2018-03-24T01:53:57.455Z,99.50
2018-03-24T01:57:00.774Z,99.60
2018-03-24T02:00:04.115Z,99.60
2018-03-24T02:03:07.455Z,99.50
2018-03-24T02:06:10.754Z,99.50
2018-03-24T02:09:14.156Z,99.50
2018-03-24T02:12:17.479Z,99.50
2018-03-24T02:15:20.836Z,99.50
2018-03-24T02:18:24.154Z,99.50
2018-03-24T02:21:27.500Z,99.50
2018-03-24T02:24:30.840Z,99.50
2018-03-24T02:27:34.179Z,99.50
2018-03-24T02:30:37.486Z,99.50
2018-03-24T02:33:40.823Z,99.50
2018-03-24T02:36:44.165Z,99.50
2018-03-24T02:39:47.479Z,99.50
2018-03-24T02:42:50.831Z,99.60
2018-03-24T02:45:54.155Z,99.60
2018-03-24T02:48:57.475Z,99.60
2018-03-24T02:52:01.586Z,99.60
2018-03-24T02:55:04.912Z,99.60
2018-03-24T02:58:08.247Z,99.60
2018-03-24T03:01:11.558Z,99.60
2018-03-24T03:04:14.895Z,99.60
2018-03-24T03:07:18.215Z,99.60
2018-03-24T03:10:21.547Z,99.60
2018-03-24T03:13:24.880Z,99.60
2018-03-24T03:16:28.203Z,99.70
2018-03-24T03:19:31.557Z,99.60
2018-03-24T03:22:35.707Z,99.70
2018-03-24T03:25:38.990Z,99.70
2018-03-24T03:28:42.315Z,99.70
2018-03-24T03:31:47.897Z,99.70
2018-03-24T03:34:51.203Z,99.70
2018-03-24T03:37:54.542Z,99.70
2018-03-24T03:40:57.855Z,99.70
2018-03-24T03:44:01.196Z,99.70
2018-03-24T03:47:04.517Z,99.70
2018-03-24T03:50:08.618Z,99.80
2018-03-24T03:53:12.698Z,99.80
2018-03-24T03:56:16.028Z,99.80
2018-03-24T03:59:20.122Z,99.80
2018-03-24T04:02:23.434Z,99.80
2018-03-24T04:05:26.757Z,99.80
2018-03-24T04:08:30.087Z,99.80
2018-03-24T04:11:33.421Z,99.80
2018-03-24T04:14:36.739Z,99.80
2018-03-24T04:17:40.847Z,99.90
2018-03-24T04:20:44.932Z,99.90
2018-03-24T04:23:48.282Z,99.90
2018-03-24T04:26:51.644Z,99.90
2018-03-24T04:29:55.007Z,99.90
2018-03-24T04:32:58.376Z,99.90
2018-03-24T04:36:01.697Z,99.90
2018-03-24T04:39:10.758Z,99.90
2018-03-24T04:42:14.987Z,99.90
2018-03-24T04:45:18.308Z,99.90
2018-03-24T04:48:21.639Z,99.90
2018-03-24T04:51:24.952Z,99.90
2018-03-24T04:54:28.282Z,99.90
2018-03-24T04:57:32.351Z,99.90
2018-03-24T05:00:35.678Z,99.90
2018-03-24T05:03:38.988Z,99.90
2018-03-24T05:06:43.094Z,99.90
2018-03-24T05:09:46.415Z,99.90
2018-03-24T05:12:49.747Z,99.90
2018-03-24T05:15:53.073Z,99.90
2018-03-24T05:18:56.382Z,99.90
2018-03-24T05:21:59.723Z,99.90
2018-03-24T05:25:03.034Z,99.90
2018-03-24T05:28:06.363Z,99.90
2018-03-24T05:31:09.835Z,99.90
2018-03-24T05:34:13.176Z,99.90
2018-03-24T05:37:17.274Z,99.90
2018-03-24T05:40:20.607Z,99.90
2018-03-24T05:43:23.951Z,99.90
2018-03-24T05:46:27.279Z,99.90
2018-03-24T05:49:30.606Z,99.90
2018-03-24T05:52:33.915Z,99.90
2018-03-24T05:55:37.242Z,99.90
2018-03-24T05:58:40.547Z,99.90
2018-03-24T06:01:43.884Z,99.90
2018-03-24T06:04:47.203Z,99.90
2018-03-24T06:07:50.532Z,99.90
2018-03-24T06:10:53.846Z,99.90
2018-03-24T06:13:57.171Z,99.90
2018-03-24T06:17:00.490Z,99.90
2018-03-24T06:20:03.795Z,99.90
2018-03-24T06:23:07.451Z,99.90
2018-03-24T06:26:11.528Z,99.90
2018-03-24T06:29:14.851Z,99.90
2018-03-24T06:32:18.155Z,99.90
2018-03-24T06:35:21.480Z,99.90
2018-03-24T06:38:24.810Z,99.90
2018-03-24T06:41:28.165Z,99.90
2018-03-24T06:44:31.495Z,99.90
2018-03-24T06:47:34.932Z,99.90
2018-03-24T06:50:38.279Z,99.90
2018-03-24T06:53:41.582Z,99.90
2018-03-24T06:56:44.904Z,99.90
2018-03-24T06:59:48.206Z,99.90
2018-03-24T07:02:51.547Z,99.90
2018-03-24T07:05:54.876Z,99.90
2018-03-24T07:08:58.202Z,99.90
2018-03-24T07:12:01.535Z,99.90
2018-03-24T07:15:04.878Z,99.90
2018-03-24T07:18:08.215Z,99.90
2018-03-24T07:21:12.286Z,99.90
2018-03-24T07:24:15.611Z,99.90
2018-03-24T07:27:18.925Z,99.90
2018-03-24T07:30:23.014Z,99.90
2018-03-24T07:33:26.355Z,99.90
2018-03-24T07:36:29.663Z,99.90
2018-03-24T07:39:32.990Z,99.90
2018-03-24T07:42:36.304Z,99.90
2018-03-24T07:45:39.642Z,99.90
2018-03-24T07:48:42.940Z,99.90
2018-03-24T07:51:46.274Z,99.80
2018-03-24T07:54:49.578Z,99.70
2018-03-24T07:57:53.010Z,99.60
2018-03-24T08:00:57.082Z,99.60
2018-03-24T08:04:00.403Z,99.60
2018-03-24T08:07:03.717Z,99.50
2018-03-24T08:10:07.821Z,99.30
2018-03-24T08:13:11.138Z,99.30
2018-03-24T08:16:15.251Z,99.10
2018-03-24T08:19:19.326Z,98.90
2018-03-24T08:22:22.648Z,98.90
2018-03-24T08:25:26.732Z,98.90
2018-03-24T08:28:30.059Z,98.90
2018-03-24T08:31:34.147Z,98.70
2018-03-24T08:34:37.458Z,98.70
2018-03-24T08:37:40.791Z,98.70
2018-03-24T08:40:44.115Z,98.60
2018-03-24T08:43:47.434Z,98.60
2018-03-24T08:46:50.755Z,98.50
2018-03-24T08:49:54.827Z,98.50
2018-03-24T08:52:58.151Z,98.50
2018-03-24T08:56:01.460Z,98.40
2018-03-24T08:59:04.786Z,98.20
2018-03-24T09:02:08.092Z,97.90
2018-03-24T09:05:11.413Z,97.50
2018-03-24T09:08:14.723Z,97.60
2018-03-24T09:11:18.051Z,97.60
2018-03-24T09:14:22.160Z,97.40
2018-03-24T09:17:25.464Z,97.40
2018-03-24T09:20:28.787Z,97.10
2018-03-24T09:23:32.098Z,97.00
2018-03-24T09:26:35.431Z,96.90
2018-03-24T09:29:38.760Z,96.90
2018-03-24T09:32:42.847Z,96.50
2018-03-24T09:35:46.170Z,96.50
2018-03-24T09:38:50.244Z,96.30
2018-03-24T09:41:53.562Z,96.30
2018-03-24T09:44:56.879Z,96.10
2018-03-24T09:48:00.966Z,95.80
2018-03-24T09:51:04.279Z,95.80
2018-03-24T09:54:07.602Z,96.00
2018-03-24T09:57:10.907Z,95.80
2018-03-24T10:00:14.226Z,95.10
2018-03-24T10:03:17.550Z,95.20
2018-03-24T10:06:20.850Z,94.70
2018-03-24T10:09:24.171Z,94.20
2018-03-24T10:12:28.234Z,94.20
2018-03-24T10:15:31.559Z,94.20
2018-03-24T10:18:34.872Z,94.10
2018-03-24T10:25:32.206Z,92.50
2018-03-24T10:28:35.527Z,93.40
2018-03-24T10:31:38.852Z,92.20
2018-03-24T10:34:42.163Z,92.60
2018-03-24T10:37:50.947Z,92.70
2018-03-24T10:40:54.266Z,92.60
2018-03-24T10:43:58.362Z,93.20
2018-03-24T10:47:01.676Z,93.10
2018-03-24T10:50:05.766Z,91.80
2018-03-24T10:53:09.095Z,91.80
2018-03-24T10:56:12.406Z,92.30
2018-03-24T10:59:16.276Z,92.60
2018-03-24T11:02:20.356Z,92.20
2018-03-24T11:05:26.278Z,91.90
2018-03-24T11:08:30.459Z,92.10
2018-03-24T11:11:33.788Z,91.80
2018-03-24T11:14:37.091Z,91.80
2018-03-24T11:17:40.409Z,91.40
2018-03-24T11:20:43.796Z,91.60
2018-03-24T11:23:47.124Z,92.00
2018-03-24T11:26:50.452Z,92.30
2018-03-24T11:29:54.535Z,90.70
2018-03-24T11:32:57.919Z,90.70
2018-03-24T11:36:01.220Z,90.60
2018-03-24T11:39:04.537Z,91.20
2018-03-24T11:42:20.841Z,91.00
2018-03-24T11:45:25.080Z,91.00
2018-03-24T11:48:29.301Z,90.70
2018-03-24T11:51:32.640Z,90.70
2018-03-24T11:54:45.970Z,91.40
2018-03-24T11:57:50.480Z,90.60
2018-03-24T12:00:53.831Z,91.00
2018-03-24T12:03:57.169Z,91.00
2018-03-24T12:07:00.517Z,90.00
2018-03-24T12:10:03.843Z,88.70
2018-03-24T12:13:07.540Z,89.80
2018-03-24T12:16:11.611Z,90.70
2018-03-24T12:19:14.923Z,90.70
2018-03-24T12:22:18.222Z,90.90
2018-03-24T12:25:21.552Z,88.80
2018-03-24T12:28:25.670Z,88.10
2018-03-24T12:31:28.959Z,88.10
2018-03-24T12:34:32.290Z,90.00
2018-03-24T12:37:35.586Z,90.20
2018-03-24T12:40:38.894Z,88.30
2018-03-24T12:43:42.215Z,89.90
2018-03-24T12:46:45.543Z,88.90
2018-03-24T12:49:49.610Z,86.60
2018-03-24T12:52:52.951Z,86.50
2018-03-24T12:55:57.034Z,87.80
2018-03-24T12:59:00.359Z,87.80
2018-03-24T13:02:04.462Z,85.90
2018-03-24T13:05:07.778Z,86.00
2018-03-24T13:08:11.880Z,85.90
2018-03-24T13:11:15.187Z,85.90
2018-03-24T13:14:19.276Z,86.10
2018-03-24T13:17:22.584Z,86.10
2018-03-24T13:20:25.911Z,86.50
2018-03-24T13:23:29.231Z,87.30
2018-03-24T13:26:32.550Z,87.30
2018-03-24T13:29:35.865Z,83.20
2018-03-24T13:32:39.182Z,84.00
2018-03-24T13:35:43.278Z,85.90
2018-03-24T13:38:46.612Z,86.00
2018-03-24T13:41:49.948Z,85.20
2018-03-24T13:44:53.256Z,84.20
2018-03-24T13:47:56.603Z,83.80
2018-03-24T13:50:59.920Z,82.20
2018-03-24T13:54:03.259Z,84.00
2018-03-24T13:57:07.343Z,82.60
2018-03-24T14:00:10.663Z,82.70
2018-03-24T14:03:13.964Z,85.40
2018-03-24T14:06:17.287Z,83.50
2018-03-24T14:09:20.596Z,83.00
2018-03-24T14:12:23.924Z,82.20
2018-03-24T14:15:27.250Z,81.80
2018-03-24T14:18:30.571Z,81.90
2018-03-24T14:21:34.648Z,79.50
2018-03-24T14:24:37.963Z,79.50
2018-03-24T14:27:41.263Z,80.20
2018-03-24T14:30:44.979Z,80.50
2018-03-24T14:33:49.067Z,80.20
2018-03-24T14:36:52.388Z,80.00
2018-03-24T14:39:56.496Z,81.40
2018-03-24T14:42:59.831Z,81.30
2018-03-24T14:46:03.907Z,82.70
2018-03-24T14:49:07.279Z,82.90
2018-03-24T14:52:10.638Z,81.20
2018-03-24T14:55:13.965Z,80.80
2018-03-24T14:58:17.341Z,82.70
2018-03-24T15:01:20.680Z,81.70
2018-03-24T15:04:24.019Z,81.00
2018-03-24T15:07:27.391Z,81.10
2018-03-24T15:10:30.724Z,80.70
2018-03-24T15:13:34.088Z,82.10
2018-03-24T15:16:38.228Z,83.10
2018-03-24T15:19:41.585Z,83.10
2018-03-24T15:22:44.931Z,83.30
2018-03-24T15:25:48.263Z,84.70
2018-03-24T15:29:09.315Z,85.40
2018-03-24T15:32:31.230Z,84.80
2018-03-24T15:35:34.598Z,84.80
2018-03-24T15:38:37.904Z,85.40
2018-03-24T15:41:41.223Z,85.00
2018-03-24T15:44:44.524Z,85.50
2018-03-24T15:47:48.628Z,85.40
2018-03-24T15:50:51.938Z,85.40
2018-03-24T15:53:56.043Z,83.70
2018-03-24T15:56:59.337Z,83.70
2018-03-24T16:00:02.655Z,83.90
2018-03-24T16:03:06.713Z,85.90
2018-03-24T16:06:10.037Z,85.90
2018-03-24T16:09:13.334Z,85.30
2018-03-24T16:12:16.650Z,83.30
2018-03-24T16:15:20.791Z,83.20
2018-03-24T16:18:24.047Z,83.00
2018-03-24T16:21:27.386Z,82.70
2018-03-24T16:24:30.693Z,83.60
2018-03-24T16:27:34.020Z,83.50
2018-03-24T16:30:37.327Z,83.90
2018-03-24T16:33:40.643Z,84.30
2018-03-24T16:36:44.760Z,84.70
2018-03-24T16:39:48.879Z,84.30
2018-03-24T16:42:53.164Z,83.90
2018-03-24T16:45:56.491Z,83.80
2018-03-24T16:49:00.599Z,85.60
2018-03-24T16:52:04.688Z,86.50
2018-03-24T16:55:08.015Z,86.40
2018-03-24T16:58:12.186Z,87.10
2018-03-24T17:01:15.534Z,87.10
2018-03-24T17:04:19.643Z,87.50
2018-03-24T17:07:23.723Z,87.50
2018-03-24T17:10:27.032Z,87.90
2018-03-24T17:13:30.398Z,87.90
2018-03-24T17:16:34.439Z,87.70
2018-03-24T17:19:37.776Z,87.70
2018-03-24T17:22:46.450Z,88.00
2018-03-24T17:25:49.774Z,88.00
2018-03-24T17:28:53.875Z,88.30
2018-03-24T17:31:58.099Z,88.20
2018-03-24T17:35:01.474Z,88.30
2018-03-24T17:38:04.767Z,88.30
2018-03-24T17:41:08.101Z,88.30
2018-03-24T17:44:11.402Z,89.00
2018-03-24T17:47:15.482Z,89.00
2018-03-24T17:50:18.823Z,88.90
2018-03-24T17:53:22.910Z,89.30
2018-03-24T17:56:26.308Z,89.20
2018-03-24T17:59:30.460Z,89.30
2018-03-24T18:02:33.758Z,89.30
2018-03-24T18:05:37.123Z,89.40
2018-03-24T18:08:40.418Z,89.50
2018-03-24T18:11:43.760Z,89.50
2018-03-24T18:14:47.128Z,89.60
2018-03-24T18:17:51.211Z,89.70
2018-03-24T18:20:54.559Z,89.70
2018-03-24T18:23:57.918Z,90.00
2018-03-24T18:27:02.053Z,90.10
2018-03-24T18:30:06.156Z,90.50
2018-03-24T18:33:09.458Z,90.40
2018-03-24T18:36:13.584Z,90.80
2018-03-24T18:39:16.928Z,90.80
2018-03-24T18:42:20.235Z,90.90
2018-03-24T18:45:23.546Z,91.00
2018-03-24T18:48:26.859Z,91.10
2018-03-24T18:51:30.180Z,91.10
2018-03-24T18:54:33.487Z,91.30
2018-03-24T18:57:36.807Z,91.40
2018-03-24T19:00:40.127Z,91.30
2018-03-24T19:03:43.450Z,91.50
2018-03-24T19:06:47.523Z,91.80
2018-03-24T19:09:50.843Z,91.80
2018-03-24T19:12:54.172Z,91.90
2018-03-24T19:15:57.485Z,92.10
2018-03-24T19:19:00.837Z,91.90
2018-03-24T19:22:04.148Z,91.70
2018-03-24T19:25:08.284Z,91.80
2018-03-24T19:28:11.547Z,91.70
2018-03-24T19:31:14.887Z,91.90
2018-03-24T19:34:18.190Z,92.00
2018-03-24T19:37:21.511Z,91.90
2018-03-24T19:40:24.826Z,92.30
2018-03-24T19:43:28.151Z,92.80
2018-03-24T19:46:32.218Z,93.80
2018-03-24T19:49:35.538Z,93.70
2018-03-24T19:52:38.871Z,93.90
2018-03-24T19:55:42.202Z,94.00
2018-03-24T19:58:45.511Z,94.30
2018-03-24T20:01:48.852Z,94.10
2018-03-24T20:04:52.924Z,94.00
2018-03-24T20:07:56.243Z,94.00
2018-03-24T20:10:59.541Z,94.10
2018-03-24T20:14:03.626Z,94.40
2018-03-24T20:17:06.934Z,94.40
2018-03-24T20:20:10.262Z,94.60
2018-03-24T20:23:14.335Z,94.80
2018-03-24T20:26:17.654Z,94.80
2018-03-24T20:29:21.744Z,95.20
2018-03-24T20:32:25.051Z,95.20
2018-03-24T20:35:28.370Z,94.90
2018-03-24T20:38:32.459Z,94.80
2018-03-24T20:41:35.779Z,94.70
2018-03-24T20:44:39.855Z,94.80
2018-03-24T20:47:43.187Z,94.80
2018-03-24T20:50:47.272Z,95.00
2018-03-24T20:53:50.595Z,94.90
2018-03-24T20:56:53.895Z,94.90
2018-03-24T20:59:58.019Z,95.30
2018-03-24T21:03:02.115Z,95.10
2018-03-24T21:06:05.438Z,95.10
2018-03-24T21:09:08.747Z,95.20
2018-03-24T21:12:12.072Z,95.30
2018-03-24T21:15:15.375Z,95.30
2018-03-24T21:18:18.715Z,95.30
2018-03-24T21:21:22.788Z,95.20
2018-03-24T21:24:26.163Z,95.10
2018-03-24T21:27:30.214Z,94.90
2018-03-24T21:30:33.531Z,94.90
2018-03-24T21:33:36.853Z,94.90
2018-03-24T21:36:40.166Z,94.80
2018-03-24T21:39:43.472Z,94.90
2018-03-24T21:42:46.798Z,94.90
2018-03-24T21:45:50.137Z,94.90
2018-03-24T21:48:53.434Z,94.90
2018-03-24T21:51:56.767Z,95.00
2018-03-24T21:55:00.066Z,95.00
2018-03-24T21:58:03.379Z,95.00
2018-03-24T22:01:06.684Z,95.00
2018-03-24T22:04:10.011Z,95.10
2018-03-24T22:07:13.314Z,95.40
2018-03-24T22:10:16.630Z,95.10
2018-03-24T22:13:19.941Z,95.20
2018-03-24T22:16:23.265Z,95.30
2018-03-24T22:19:26.586Z,95.40
2018-03-24T22:22:30.655Z,95.60
2018-03-24T22:25:33.970Z,95.60
2018-03-24T22:28:37.279Z,96.00
2018-03-24T22:31:40.605Z,95.80
2018-03-24T22:34:43.938Z,95.70
2018-03-24T22:37:47.239Z,95.70
2018-03-24T22:40:50.554Z,95.90
2018-03-24T22:43:53.902Z,96.00
2018-03-24T22:46:57.212Z,96.00
2018-03-24T22:50:01.435Z,96.00
2018-03-24T22:53:04.750Z,96.00
2018-03-24T22:56:08.056Z,96.10
2018-03-24T22:59:11.375Z,96.10
2018-03-24T23:02:15.519Z,96.10
2018-03-24T23:05:18.792Z,96.10
2018-03-24T23:08:22.861Z,96.20
2018-03-24T23:11:26.178Z,96.20
2018-03-24T23:14:29.526Z,96.20
2018-03-24T23:17:32.850Z,96.30
2018-03-24T23:20:36.151Z,96.20
2018-03-24T23:23:39.476Z,96.30
2018-03-24T23:26:43.545Z,96.30
2018-03-24T23:29:46.877Z,96.30
2018-03-24T23:32:50.191Z,96.40
2018-03-24T23:35:53.521Z,96.40
2018-03-24T23:38:56.818Z,96.40
2018-03-24T23:42:00.134Z,96.50
2018-03-24T23:45:03.442Z,96.50
2018-03-24T23:48:06.766Z,96.50
2018-03-24T23:51:10.830Z,96.50
2018-03-24T23:54:14.138Z,96.40
2018-03-24T23:57:17.478Z,96.50
